Gozo/Gharb, Malta
Current Conditions -  °F | °C
As of 8:45 PM on Saturday 20 Dec 2014 (Local Time) from LMML Reporting Station
Broken Clouds Broken Clouds  
Wind Chill: 61°   Ceiling: 4000
Heat Index: 61°   Visibility: 6mi
Dew Point: 54°   Wind: 9mph
Humidity: 77%   Direction: 310°NW
Pressure: 30.24"   Gusts: NA
Location:  36.05°N, 14.27°E
Report Text: LMML 201845Z 31008KT 9999 SCT022 BKN040 16/12 Q1024 NOSIG
Loading
Personal Weather Stations






























Interactive Weather Map New forecast layout! Learn more

10-Day Weather Forecast

Advertisements
Track Severe Weather on mobile